sensor_id;sensor_type;location;lat;lon;timestamp;pressure;altitude;pressure_sealevel;temperature;humidity
50380;BME280;37474;59.468;18.040;2022-12-18T00:01:30;101950.22;;;-2.34;100.00
50380;BME280;37474;59.468;18.040;2022-12-18T00:04:00;102003.31;;;-2.06;100.00
50380;BME280;37474;59.468;18.040;2022-12-18T00:06:30;102004.97;;;-2.09;100.00
50380;BME280;37474;59.468;18.040;2022-12-18T00:09:00;102004.13;;;-2.08;100.00
50380;BME280;37474;59.468;18.040;2022-12-18T00:11:29;101999.16;;;-2.04;100.00
50380;BME280;37474;59.468;18.040;2022-12-18T00:13:59;101999.78;;;-2.14;100.00
50380;BME280;37474;59.468;18.040;2022-12-18T00:16:29;101992.19;;;-2.11;100.00
50380;BME280;37474;59.468;18.040;2022-12-18T00:19:00;101967.34;;;-2.27;100.00
50380;BME280;37474;59.468;18.040;2022-12-18T00:21:29;101982.84;;;-2.14;100.00
50380;BME280;37474;59.468;18.040;2022-12-18T00:23:58;101980.22;;;-2.17;100.00
50380;BME280;37474;59.468;18.040;2022-12-18T00:26:28;101986.25;;;-2.13;100.00
50380;BME280;37474;59.468;18.040;2022-12-18T00:28:59;101992.50;;;-1.97;100.00
50380;BME280;37474;59.468;18.040;2022-12-18T00:31:29;101989.94;;;-1.99;100.00
50380;BME280;37474;59.468;18.040;2022-12-18T00:33:58;101988.28;;;-1.97;100.00
50380;BME280;37474;59.468;18.040;2022-12-18T00:36:28;101983.19;;;-1.97;100.00
50380;BME280;37474;59.468;18.040;2022-12-18T00:38:57;101972.19;;;-1.97;100.00
50380;BME280;37474;59.468;18.040;2022-12-18T00:41:26;101951.50;;;-2.14;100.00
50380;BME280;37474;59.468;18.040;2022-12-18T00:44:14;101978.22;;;-1.91;100.00
50380;BME280;37474;59.468;18.040;2022-12-18T00:46:45;101970.47;;;-1.98;100.00
50380;BME280;37474;59.468;18.040;2022-12-18T00:49:14;101942.97;;;-2.18;100.00
50380;BME280;37474;59.468;18.040;2022-12-18T00:51:42;101967.91;;;-1.98;100.00
50380;BME280;37474;59.468;18.040;2022-12-18T00:54:10;101965.31;;;-2.01;100.00
50380;BME280;37474;59.468;18.040;2022-12-18T00:56:39;101953.22;;;-2.13;100.00
50380;BME280;37474;59.468;18.040;2022-12-18T00:59:15;101964.44;;;-2.02;100.00
50380;BME280;37474;59.468;18.040;2022-12-18T01:01:45;101984.97;;;-1.93;100.00
50380;BME280;37474;59.468;18.040;2022-12-18T01:04:14;101972.28;;;-1.91;100.00
50380;BME280;37474;59.468;18.040;2022-12-18T01:06:42;101982.22;;;-2.03;100.00
50380;BME280;37474;59.468;18.040;2022-12-18T01:09:10;101989.31;;;-1.87;100.00
50380;BME280;37474;59.468;18.040;2022-12-18T01:11:38;101952.38;;;-2.14;100.00
50380;BME280;37474;59.468;18.040;2022-12-18T01:14:06;101995.25;;;-1.88;100.00
50380;BME280;37474;59.468;18.040;2022-12-18T01:16:34;101996.13;;;-1.84;100.00
50380;BME280;37474;59.468;18.040;2022-12-18T01:19:03;101946.31;;;-2.20;100.00
50380;BME280;37474;59.468;18.040;2022-12-18T01:21:32;101951.53;;;-2.13;100.00
50380;BME280;37474;59.468;18.040;2022-12-18T01:24:00;101947.19;;;-2.18;100.00
50380;BME280;37474;59.468;18.040;2022-12-18T01:26:29;101996.84;;;-1.93;100.00
50380;BME280;37474;59.468;18.040;2022-12-18T01:28:57;101994.38;;;-1.89;100.00
50380;BME280;37474;59.468;18.040;2022-12-18T01:31:27;101949.91;;;-2.10;100.00
50380;BME280;37474;59.468;18.040;2022-12-18T01:33:56;102003.00;;;-1.80;100.00
50380;BME280;37474;59.468;18.040;2022-12-18T01:36:27;101992.28;;;-1.66;100.00
50380;BME280;37474;59.468;18.040;2022-12-18T01:38:56;101993.81;;;-1.72;100.00
50380;BME280;37474;59.468;18.040;2022-12-18T01:41:26;101980.13;;;-1.80;100.00
50380;BME280;37474;59.468;18.040;2022-12-18T01:44:53;101976.84;;;-1.75;100.00
50380;BME280;37474;59.468;18.040;2022-12-18T01:47:24;101976.97;;;-1.67;100.00
50380;BME280;37474;59.468;18.040;2022-12-18T01:49:53;101959.13;;;-1.70;100.00
50380;BME280;37474;59.468;18.040;2022-12-18T01:52:24;101962.47;;;-1.73;100.00
50380;BME280;37474;59.468;18.040;2022-12-18T01:54:54;101955.78;;;-1.68;100.00
50380;BME280;37474;59.468;18.040;2022-12-18T01:57:23;101953.28;;;-1.66;100.00
50380;BME280;37474;59.468;18.040;2022-12-18T01:59:54;101949.16;;;-1.60;100.00
50380;BME280;37474;59.468;18.040;2022-12-18T02:02:23;101937.91;;;-1.72;100.00
50380;BME280;37474;59.468;18.040;2022-12-18T02:04:51;101956.59;;;-1.70;100.00
50380;BME280;37474;59.468;18.040;2022-12-18T02:07:26;101915.53;;;-1.92;100.00
50380;BME280;37474;59.468;18.040;2022-12-18T02:10:01;101952.47;;;-1.64;100.00
50380;BME280;37474;59.468;18.040;2022-12-18T02:12:36;101944.94;;;-1.59;100.00
50380;BME280;37474;59.468;18.040;2022-12-18T02:15:13;101938.94;;;-1.61;100.00
50380;BME280;37474;59.468;18.040;2022-12-18T02:17:47;101893.53;;;-1.90;100.00
50380;BME280;37474;59.468;18.040;2022-12-18T02:20:20;101915.63;;;-1.86;100.00
50380;BME280;37474;59.468;18.040;2022-12-18T02:23:06;101957.56;;;-1.64;100.00
50380;BME280;37474;59.468;18.040;2022-12-18T02:26:02;101930.91;;;-1.84;100.00
50380;BME280;37474;59.468;18.040;2022-12-18T02:28:36;101962.66;;;-1.62;100.00
50380;BME280;37474;59.468;18.040;2022-12-18T02:31:08;101895.09;;;-1.98;100.00
50380;BME280;37474;59.468;18.040;2022-12-18T02:33:40;101927.41;;;-1.89;100.00
50380;BME280;37474;59.468;18.040;2022-12-18T02:36:09;101954.38;;;-1.52;100.00
50380;BME280;37474;59.468;18.040;2022-12-18T02:38:41;101943.78;;;-1.76;100.00
50380;BME280;37474;59.468;18.040;2022-12-18T02:41:13;101955.97;;;-1.57;100.00
50380;BME280;37474;59.468;18.040;2022-12-18T02:43:46;101949.34;;;-1.49;100.00
50380;BME280;37474;59.468;18.040;2022-12-18T02:46:28;101963.03;;;-1.42;100.00
50380;BME280;37474;59.468;18.040;2022-12-18T02:49:04;101953.44;;;-1.57;100.00
50380;BME280;37474;59.468;18.040;2022-12-18T02:51:40;101946.66;;;-1.58;100.00
50380;BME280;37474;59.468;18.040;2022-12-18T02:54:20;101887.63;;;-1.89;100.00
50380;BME280;37474;59.468;18.040;2022-12-18T02:56:55;101947.66;;;-1.50;100.00
50380;BME280;37474;59.468;18.040;2022-12-18T02:59:28;101948.44;;;-1.52;100.00
50380;BME280;37474;59.468;18.040;2022-12-18T03:02:02;101914.44;;;-1.57;100.00
50380;BME280;37474;59.468;18.040;2022-12-18T03:04:35;101950.03;;;-1.57;100.00
50380;BME280;37474;59.468;18.040;2022-12-18T03:07:10;101952.75;;;-1.50;100.00
50380;BME280;37474;59.468;18.040;2022-12-18T03:09:41;101944.97;;;-1.56;100.00
50380;BME280;37474;59.468;18.040;2022-12-18T03:12:15;101887.47;;;-1.98;100.00
50380;BME280;37474;59.468;18.040;2022-12-18T03:14:54;101929.56;;;-1.65;100.00
50380;BME280;37474;59.468;18.040;2022-12-18T03:17:26;101925.53;;;-1.52;100.00
50380;BME280;37474;59.468;18.040;2022-12-18T03:20:03;101933.06;;;-1.60;100.00
50380;BME280;37474;59.468;18.040;2022-12-18T03:22:33;101928.94;;;-1.53;100.00
50380;BME280;37474;59.468;18.040;2022-12-18T03:25:05;101916.91;;;-1.62;100.00
50380;BME280;37474;59.468;18.040;2022-12-18T03:27:37;101921.16;;;-1.61;100.00
50380;BME280;37474;59.468;18.040;2022-12-18T03:30:11;101919.50;;;-1.59;100.00
50380;BME280;37474;59.468;18.040;2022-12-18T03:32:42;101911.91;;;-1.57;100.00
50380;BME280;37474;59.468;18.040;2022-12-18T03:35:15;101927.25;;;-1.51;100.00
50380;BME280;37474;59.468;18.040;2022-12-18T03:37:45;101911.72;;;-1.67;100.00
50380;BME280;37474;59.468;18.040;2022-12-18T03:40:13;101911.78;;;-1.64;100.00
50380;BME280;37474;59.468;18.040;2022-12-18T03:42:46;101926.31;;;-1.58;100.00
50380;BME280;37474;59.468;18.040;2022-12-18T03:45:22;101926.94;;;-1.70;100.00
50380;BME280;37474;59.468;18.040;2022-12-18T03:47:58;101921.00;;;-1.70;100.00
50380;BME280;37474;59.468;18.040;2022-12-18T03:50:36;101925.16;;;-1.75;100.00
50380;BME280;37474;59.468;18.040;2022-12-18T03:53:14;101933.63;;;-1.75;100.00
50380;BME280;37474;59.468;18.040;2022-12-18T03:55:45;101911.59;;;-1.74;100.00
50380;BME280;37474;59.468;18.040;2022-12-18T03:58:19;101896.13;;;-1.87;100.00
50380;BME280;37474;59.468;18.040;2022-12-18T04:00:49;101924.31;;;-1.73;100.00
50380;BME280;37474;59.468;18.040;2022-12-18T04:03:19;101913.19;;;-1.81;100.00
50380;BME280;37474;59.468;18.040;2022-12-18T04:05:54;101916.66;;;-1.76;100.00
50380;BME280;37474;59.468;18.040;2022-12-18T04:08:22;101924.97;;;-1.84;100.00
50380;BME280;37474;59.468;18.040;2022-12-18T04:10:51;101927.50;;;-1.84;100.00
50380;BME280;37474;59.468;18.040;2022-12-18T04:13:24;101934.16;;;-1.91;100.00
50380;BME280;37474;59.468;18.040;2022-12-18T04:15:55;101924.09;;;-1.87;100.00
50380;BME280;37474;59.468;18.040;2022-12-18T04:18:23;101936.72;;;-1.90;100.00
50380;BME280;37474;59.468;18.040;2022-12-18T04:20:51;101936.78;;;-1.88;100.00
50380;BME280;37474;59.468;18.040;2022-12-18T04:23:19;101932.38;;;-1.97;100.00
50380;BME280;37474;59.468;18.040;2022-12-18T04:25:48;101940.31;;;-1.78;100.00
50380;BME280;37474;59.468;18.040;2022-12-18T04:28:16;101902.38;;;-2.16;100.00
50380;BME280;37474;59.468;18.040;2022-12-18T04:30:46;101933.00;;;-2.07;100.00
50380;BME280;37474;59.468;18.040;2022-12-18T04:33:14;101904.94;;;-2.13;100.00
50380;BME280;37474;59.468;18.040;2022-12-18T04:35:42;101932.69;;;-1.80;100.00
50380;BME280;37474;59.468;18.040;2022-12-18T04:38:11;101924.09;;;-1.87;100.00
50380;BME280;37474;59.468;18.040;2022-12-18T04:40:39;101845.47;;;-2.24;100.00
50380;BME280;37474;59.468;18.040;2022-12-18T04:43:08;101913.28;;;-1.76;100.00
50380;BME280;37474;59.468;18.040;2022-12-18T04:45:36;101910.56;;;-1.84;100.00
50380;BME280;37474;59.468;18.040;2022-12-18T04:48:07;101904.63;;;-1.84;100.00
50380;BME280;37474;59.468;18.040;2022-12-18T04:50:35;101896.13;;;-1.88;100.00
50380;BME280;37474;59.468;18.040;2022-12-18T04:53:04;101890.09;;;-1.92;100.00
50380;BME280;37474;59.468;18.040;2022-12-18T04:55:32;101891.03;;;-1.88;100.00
50380;BME280;37474;59.468;18.040;2022-12-18T04:58:00;101879.09;;;-1.92;100.00
50380;BME280;37474;59.468;18.040;2022-12-18T05:00:28;101885.78;;;-1.97;100.00
50380;BME280;37474;59.468;18.040;2022-12-18T05:02:55;101881.50;;;-2.00;100.00
50380;BME280;37474;59.468;18.040;2022-12-18T05:05:25;101873.91;;;-1.98;100.00
50380;BME280;37474;59.468;18.040;2022-12-18T05:07:53;101872.94;;;-2.05;100.00
50380;BME280;37474;59.468;18.040;2022-12-18T05:10:21;101849.88;;;-2.14;100.00
50380;BME280;37474;59.468;18.040;2022-12-18T05:12:49;101815.59;;;-2.37;100.00
50380;BME280;37474;59.468;18.040;2022-12-18T05:15:28;101842.44;;;-2.05;100.00
50380;BME280;37474;59.468;18.040;2022-12-18T05:17:56;101869.72;;;-1.95;100.00
50380;BME280;37474;59.468;18.040;2022-12-18T05:20:25;101861.16;;;-2.00;100.00
50380;BME280;37474;59.468;18.040;2022-12-18T05:22:54;101873.91;;;-1.98;100.00
50380;BME280;37474;59.468;18.040;2022-12-18T05:25:23;101875.59;;;-1.97;100.00
50380;BME280;37474;59.468;18.040;2022-12-18T05:27:51;101858.59;;;-2.01;100.00
50380;BME280;37474;59.468;18.040;2022-12-18T05:30:19;101820.78;;;-2.31;100.00
50380;BME280;37474;59.468;18.040;2022-12-18T05:32:47;101850.94;;;-2.03;100.00
50380;BME280;37474;59.468;18.040;2022-12-18T05:35:15;101813.91;;;-2.35;100.00
50380;BME280;37474;59.468;18.040;2022-12-18T05:37:44;101855.94;;;-2.06;100.00
50380;BME280;37474;59.468;18.040;2022-12-18T05:40:12;101849.94;;;-2.11;100.00
50380;BME280;37474;59.468;18.040;2022-12-18T05:42:40;101853.56;;;-1.98;100.00
50380;BME280;37474;59.468;18.040;2022-12-18T05:45:09;101849.22;;;-2.05;100.00
50380;BME280;37474;59.468;18.040;2022-12-18T05:47:37;101831.97;;;-2.22;100.00
50380;BME280;37474;59.468;18.040;2022-12-18T05:50:06;101840.44;;;-2.21;100.00
50380;BME280;37474;59.468;18.040;2022-12-18T05:52:34;101814.13;;;-2.23;100.00
50380;BME280;37474;59.468;18.040;2022-12-18T05:55:04;101801.41;;;-2.26;100.00
50380;BME280;37474;59.468;18.040;2022-12-18T05:57:32;101852.53;;;-2.08;100.00
50380;BME280;37474;59.468;18.040;2022-12-18T06:00:00;101802.94;;;-2.34;100.00
50380;BME280;37474;59.468;18.040;2022-12-18T06:02:28;101809.13;;;-2.20;100.00
50380;BME280;37474;59.468;18.040;2022-12-18T06:04:56;101836.66;;;-1.96;100.00
50380;BME280;37474;59.468;18.040;2022-12-18T06:07:24;101788.09;;;-2.12;100.00
50380;BME280;37474;59.468;18.040;2022-12-18T06:09:53;101840.13;;;-1.93;100.00
50380;BME280;37474;59.468;18.040;2022-12-18T06:12:22;101845.97;;;-1.97;100.00
50380;BME280;37474;59.468;18.040;2022-12-18T06:14:50;101844.63;;;-1.76;100.00
50380;BME280;37474;59.468;18.040;2022-12-18T06:17:18;101819.00;;;-1.89;100.00
50380;BME280;37474;59.468;18.040;2022-12-18T06:19:46;101838.72;;;-1.74;100.00
50380;BME280;37474;59.468;18.040;2022-12-18T06:22:14;101822.47;;;-1.83;100.00
50380;BME280;37474;59.468;18.040;2022-12-18T06:24:43;101796.88;;;-1.94;100.00
50380;BME280;37474;59.468;18.040;2022-12-18T06:27:11;101822.47;;;-1.83;100.00
50380;BME280;37474;59.468;18.040;2022-12-18T06:29:41;101831.16;;;-1.71;100.00
50380;BME280;37474;59.468;18.040;2022-12-18T06:32:09;101817.59;;;-1.71;100.00
50380;BME280;37474;59.468;18.040;2022-12-18T06:34:37;101820.16;;;-1.70;100.00
50380;BME280;37474;59.468;18.040;2022-12-18T06:37:05;101824.53;;;-1.61;100.00
50380;BME280;37474;59.468;18.040;2022-12-18T06:39:33;101761.94;;;-2.06;100.00
50380;BME280;37474;59.468;18.040;2022-12-18T06:42:01;101815.00;;;-1.74;100.00
50380;BME280;37474;59.468;18.040;2022-12-18T06:44:30;101810.75;;;-1.75;100.00
50380;BME280;37474;59.468;18.040;2022-12-18T06:46:59;101814.13;;;-1.76;100.00
50380;BME280;37474;59.468;18.040;2022-12-18T06:49:27;101789.38;;;-1.88;100.00
50380;BME280;37474;59.468;18.040;2022-12-18T06:51:56;101820.09;;;-1.73;100.00
50380;BME280;37474;59.468;18.040;2022-12-18T06:54:24;101821.88;;;-1.67;100.00
50380;BME280;37474;59.468;18.040;2022-12-18T06:56:52;101826.13;;;-1.68;100.00
50380;BME280;37474;59.468;18.040;2022-12-18T06:59:20;101789.38;;;-1.87;100.00
50380;BME280;37474;59.468;18.040;2022-12-18T07:01:48;101813.31;;;-1.72;100.00
50380;BME280;37474;59.468;18.040;2022-12-18T07:04:17;101819.34;;;-1.67;100.00
50380;BME280;37474;59.468;18.040;2022-12-18T07:06:45;101759.34;;;-2.09;100.00
50380;BME280;37474;59.468;18.040;2022-12-18T07:09:13;101805.50;;;-1.84;100.00
50380;BME280;37474;59.468;18.040;2022-12-18T07:11:41;101803.06;;;-1.78;100.00
50380;BME280;37474;59.468;18.040;2022-12-18T07:14:09;101842.41;;;-1.56;100.00
50380;BME280;37474;59.468;18.040;2022-12-18T07:16:37;101791.00;;;-1.90;100.00
50380;BME280;37474;59.468;18.040;2022-12-18T07:19:05;101840.75;;;-1.54;100.00
50380;BME280;37474;59.468;18.040;2022-12-18T07:21:35;101827.88;;;-1.65;100.00
50380;BME280;37474;59.468;18.040;2022-12-18T07:24:03;101839.00;;;-1.58;100.00
50380;BME280;37474;59.468;18.040;2022-12-18T07:26:32;101806.50;;;-1.75;100.00
50380;BME280;37474;59.468;18.040;2022-12-18T07:29:00;101832.22;;;-1.58;100.00
50380;BME280;37474;59.468;18.040;2022-12-18T07:31:28;101836.47;;;-1.57;100.00
50380;BME280;37474;59.468;18.040;2022-12-18T07:33:56;101768.06;;;-1.95;100.00
50380;BME280;37474;59.468;18.040;2022-12-18T07:36:25;101797.13;;;-1.79;100.00
50380;BME280;37474;59.468;18.040;2022-12-18T07:38:54;101833.91;;;-1.58;100.00
50380;BME280;37474;59.468;18.040;2022-12-18T07:41:22;101831.50;;;-1.49;100.00
50380;BME280;37474;59.468;18.040;2022-12-18T07:43:50;101832.38;;;-1.47;100.00
50380;BME280;37474;59.468;18.040;2022-12-18T07:46:18;101835.78;;;-1.47;100.00
50380;BME280;37474;59.468;18.040;2022-12-18T07:48:46;101826.38;;;-1.52;100.00
50380;BME280;37474;59.468;18.040;2022-12-18T07:51:16;101825.31;;;-1.65;100.00
50380;BME280;37474;59.468;18.040;2022-12-18T07:53:44;101804.09;;;-1.67;100.00
50380;BME280;37474;59.468;18.040;2022-12-18T07:56:20;101776.69;;;-1.83;100.00
50380;BME280;37474;59.468;18.040;2022-12-18T07:58:57;101801.53;;;-1.69;100.00
50380;BME280;37474;59.468;18.040;2022-12-18T08:01:26;101770.75;;;-1.87;100.00
50380;BME280;37474;59.468;18.040;2022-12-18T08:03:55;101804.94;;;-1.67;100.00
50380;BME280;37474;59.468;18.040;2022-12-18T08:06:23;101842.81;;;-1.32;100.00
50380;BME280;37474;59.468;18.040;2022-12-18T08:08:52;101837.66;;;-1.34;100.00
50380;BME280;37474;59.468;18.040;2022-12-18T08:11:23;101782.22;;;-1.56;100.00
50380;BME280;37474;59.468;18.040;2022-12-18T08:13:51;101818.31;;;-1.25;100.00
50380;BME280;37474;59.468;18.040;2022-12-18T08:16:20;101821.72;;;-1.23;100.00
50380;BME280;37474;59.468;18.040;2022-12-18T08:18:49;101819.22;;;-1.22;100.00
50380;BME280;37474;59.468;18.040;2022-12-18T08:21:21;101814.97;;;-1.21;100.00
50380;BME280;37474;59.468;18.040;2022-12-18T08:23:50;101817.53;;;-1.20;100.00
50380;BME280;37474;59.468;18.040;2022-12-18T08:26:18;101811.75;;;-1.10;100.00
50380;BME280;37474;59.468;18.040;2022-12-18T08:28:49;101810.22;;;-0.95;100.00
50380;BME280;37474;59.468;18.040;2022-12-18T08:31:17;101811.13;;;-0.90;100.00
50380;BME280;37474;59.468;18.040;2022-12-18T08:33:48;101766.72;;;-1.15;100.00
50380;BME280;37474;59.468;18.040;2022-12-18T08:36:16;101810.25;;;-0.94;100.00
50380;BME280;37474;59.468;18.040;2022-12-18T08:38:44;101815.44;;;-0.86;100.00
50380;BME280;37474;59.468;18.040;2022-12-18T08:41:14;101811.19;;;-0.87;100.00
50380;BME280;37474;59.468;18.040;2022-12-18T08:43:43;101812.19;;;-0.74;100.00
50380;BME280;37474;59.468;18.040;2022-12-18T08:46:32;101765.22;;;-0.98;100.00
50380;BME280;37474;59.468;18.040;2022-12-18T08:49:02;101767.06;;;-0.86;100.00
50380;BME280;37474;59.468;18.040;2022-12-18T08:51:31;101803.06;;;-0.57;100.00
50380;BME280;37474;59.468;18.040;2022-12-18T08:53:59;101805.66;;;-0.54;100.00
50380;BME280;37474;59.468;18.040;2022-12-18T08:56:28;101731.28;;;-0.98;100.00
50380;BME280;37474;59.468;18.040;2022-12-18T08:58:56;101779.31;;;-0.55;100.00
50380;BME280;37474;59.468;18.040;2022-12-18T09:01:24;101774.16;;;-0.61;100.00
50380;BME280;37474;59.468;18.040;2022-12-18T09:03:54;101811.72;;;-0.44;100.00
50380;BME280;37474;59.468;18.040;2022-12-18T09:06:22;101807.53;;;-0.38;100.00
50380;BME280;37474;59.468;18.040;2022-12-18T09:08:51;101815.25;;;-0.29;100.00
50380;BME280;37474;59.468;18.040;2022-12-18T09:11:21;101792.25;;;-0.35;100.00
50380;BME280;37474;59.468;18.040;2022-12-18T09:13:50;101815.34;;;-0.19;100.00
50380;BME280;37474;59.468;18.040;2022-12-18T09:16:18;101775.28;;;-0.36;100.00
50380;BME280;37474;59.468;18.040;2022-12-18T09:18:50;101814.66;;;-0.05;100.00
50380;BME280;37474;59.468;18.040;2022-12-18T09:21:21;101803.56;;;-0.08;100.00
50380;BME280;37474;59.468;18.040;2022-12-18T09:23:50;101801.94;;;-0.03;100.00
50380;BME280;37474;59.468;18.040;2022-12-18T09:26:18;101789.28;;;0.11;100.00
50380;BME280;37474;59.468;18.040;2022-12-18T09:28:47;101785.97;;;0.19;100.00
50380;BME280;37474;59.468;18.040;2022-12-18T09:31:16;101782.56;;;0.22;100.00
50380;BME280;37474;59.468;18.040;2022-12-18T09:33:44;101739.09;;;0.04;100.00
50380;BME280;37474;59.468;18.040;2022-12-18T09:36:15;101757.75;;;-0.02;100.00
50380;BME280;37474;59.468;18.040;2022-12-18T09:38:45;101771.44;;;0.11;100.00
50380;BME280;37474;59.468;18.040;2022-12-18T09:41:26;101765.53;;;0.16;100.00
50380;BME280;37474;59.468;18.040;2022-12-18T09:44:02;101712.75;;;0.02;100.00
50380;BME280;37474;59.468;18.040;2022-12-18T09:46:35;101691.41;;;-0.07;100.00
50380;BME280;37474;59.468;18.040;2022-12-18T09:49:07;101758.03;;;0.35;100.00
50380;BME280;37474;59.468;18.040;2022-12-18T09:51:41;101724.81;;;0.25;100.00
50380;BME280;37474;59.468;18.040;2022-12-18T09:54:16;101737.59;;;0.30;100.00
50380;BME280;37474;59.468;18.040;2022-12-18T09:56:46;101729.94;;;0.29;100.00
50380;BME280;37474;59.468;18.040;2022-12-18T09:59:21;101723.97;;;0.25;100.00
50380;BME280;37474;59.468;18.040;2022-12-18T10:01:50;101721.41;;;0.25;100.00
50380;BME280;37474;59.468;18.040;2022-12-18T10:04:18;101719.75;;;0.32;100.00
50380;BME280;37474;59.468;18.040;2022-12-18T10:06:52;101723.97;;;0.25;100.00
50380;BME280;37474;59.468;18.040;2022-12-18T10:09:30;101724.03;;;0.39;100.00
50380;BME280;37474;59.468;18.040;2022-12-18T10:12:07;101660.03;;;-0.01;100.00
50380;BME280;37474;59.468;18.040;2022-12-18T10:14:41;101716.41;;;0.40;100.00
50380;BME280;37474;59.468;18.040;2022-12-18T10:17:17;101730.91;;;0.46;100.00
50380;BME280;37474;59.468;18.040;2022-12-18T10:19:54;101727.50;;;0.47;100.00
50380;BME280;37474;59.468;18.040;2022-12-18T10:22:38;101717.25;;;0.42;100.00
50380;BME280;37474;59.468;18.040;2022-12-18T10:25:17;101706.25;;;0.49;100.00
50380;BME280;37474;59.468;18.040;2022-12-18T10:27:47;101693.47;;;0.46;100.00
50380;BME280;37474;59.468;18.040;2022-12-18T10:30:21;101709.66;;;0.53;100.00
50380;BME280;37474;59.468;18.040;2022-12-18T10:32:50;101713.94;;;0.59;100.00
50380;BME280;37474;59.468;18.040;2022-12-18T10:35:21;101709.69;;;0.59;100.00
50380;BME280;37474;59.468;18.040;2022-12-18T10:38:04;101710.53;;;0.52;100.00
50380;BME280;37474;59.468;18.040;2022-12-18T10:40:48;101683.25;;;0.43;100.00
50380;BME280;37474;59.468;18.040;2022-12-18T10:43:20;101642.31;;;0.19;100.00
50380;BME280;37474;59.468;18.040;2022-12-18T10:46:01;101724.19;;;0.65;100.00
50380;BME280;37474;59.468;18.040;2022-12-18T10:48:30;101711.44;;;0.65;100.00
50380;BME280;37474;59.468;18.040;2022-12-18T10:50:59;101701.25;;;0.71;100.00
50380;BME280;37474;59.468;18.040;2022-12-18T10:53:40;101674.78;;;0.49;100.00
50380;BME280;37474;59.468;18.040;2022-12-18T10:56:12;101705.50;;;0.67;100.00
50380;BME280;37474;59.468;18.040;2022-12-18T10:58:40;101702.94;;;0.70;100.00
50380;BME280;37474;59.468;18.040;2022-12-18T11:01:11;101697.81;;;0.63;100.00
50380;BME280;37474;59.468;18.040;2022-12-18T11:03:41;101646.72;;;0.47;100.00
50380;BME280;37474;59.468;18.040;2022-12-18T11:06:11;101689.31;;;0.62;100.00
50380;BME280;37474;59.468;18.040;2022-12-18T11:08:41;101683.34;;;0.59;100.00
50380;BME280;37474;59.468;18.040;2022-12-18T11:11:19;101699.56;;;0.76;100.00
50380;BME280;37474;59.468;18.040;2022-12-18T11:13:58;101690.19;;;0.70;100.00
50380;BME280;37474;59.468;18.040;2022-12-18T11:16:31;101684.13;;;0.48;100.00
50380;BME280;37474;59.468;18.040;2022-12-18T11:19:19;101699.56;;;0.77;100.00
50380;BME280;37474;59.468;18.040;2022-12-18T11:21:49;101697.88;;;0.73;100.00
50380;BME280;37474;59.468;18.040;2022-12-18T11:24:27;101682.50;;;0.66;100.00
50380;BME280;37474;59.468;18.040;2022-12-18T11:26:59;101687.66;;;0.73;100.00
50380;BME280;37474;59.468;18.040;2022-12-18T11:29:32;101649.25;;;0.49;100.00
50380;BME280;37474;59.468;18.040;2022-12-18T11:32:26;101684.25;;;0.74;100.00
50380;BME280;37474;59.468;18.040;2022-12-18T11:34:59;101680.84;;;0.68;100.00
50380;BME280;37474;59.468;18.040;2022-12-18T11:37:29;101676.53;;;0.59;100.00
50380;BME280;37474;59.468;18.040;2022-12-18T11:40:00;101702.06;;;0.56;100.00
50380;BME280;37474;59.468;18.040;2022-12-18T11:42:35;101693.63;;;0.77;100.00
50380;BME280;37474;59.468;18.040;2022-12-18T11:45:21;101692.78;;;0.78;100.00
50380;BME280;37474;59.468;18.040;2022-12-18T11:47:55;101685.13;;;0.73;100.00
50380;BME280;37474;59.468;18.040;2022-12-18T11:50:29;101618.59;;;0.38;100.00
50380;BME280;37474;59.468;18.040;2022-12-18T11:53:00;101645.91;;;0.56;100.00
50380;BME280;37474;59.468;18.040;2022-12-18T11:55:39;101674.84;;;0.64;100.00
50380;BME280;37474;59.468;18.040;2022-12-18T11:58:15;101655.28;;;0.57;100.00
50380;BME280;37474;59.468;18.040;2022-12-18T12:00:52;101691.94;;;0.79;100.00
50380;BME280;37474;59.468;18.040;2022-12-18T12:03:43;101649.31;;;0.60;100.00
50380;BME280;37474;59.468;18.040;2022-12-18T12:06:16;101683.44;;;0.83;100.00
50380;BME280;37474;59.468;18.040;2022-12-18T12:08:57;101704.72;;;0.84;100.00
50380;BME280;37474;59.468;18.040;2022-12-18T12:11:37;101657.75;;;0.45;100.00
50380;BME280;37474;59.468;18.040;2022-12-18T12:14:27;101697.94;;;0.92;100.00
50380;BME280;37474;59.468;18.040;2022-12-18T12:17:01;101698.78;;;0.91;100.00
50380;BME280;37474;59.468;18.040;2022-12-18T12:19:38;101676.59;;;0.76;100.00
50380;BME280;37474;59.468;18.040;2022-12-18T12:22:17;101718.38;;;0.98;100.00
50380;BME280;37474;59.468;18.040;2022-12-18T12:25:00;101721.78;;;0.97;100.00
50380;BME280;37474;59.468;18.040;2022-12-18T12:27:37;101651.88;;;0.58;100.00
50380;BME280;37474;59.468;18.040;2022-12-18T12:30:13;101704.69;;;0.82;100.00
50380;BME280;37474;59.468;18.040;2022-12-18T12:32:52;101720.91;;;0.93;100.00
50380;BME280;37474;59.468;18.040;2022-12-18T12:35:31;101719.25;;;0.98;100.00
50380;BME280;37474;59.468;18.040;2022-12-18T12:38:08;101709.03;;;1.00;100.00
50380;BME280;37474;59.468;18.040;2022-12-18T12:40:42;101718.41;;;1.01;100.00
50380;BME280;37474;59.468;18.040;2022-12-18T12:43:31;101726.06;;;1.02;100.00
50380;BME280;37474;59.468;18.040;2022-12-18T12:46:04;101721.84;;;1.09;100.00
50380;BME280;37474;59.468;18.040;2022-12-18T12:48:55;101725.28;;;1.17;100.00
50380;BME280;37474;59.468;18.040;2022-12-18T12:51:26;101722.69;;;1.07;100.00
50380;BME280;37474;59.468;18.040;2022-12-18T12:53:57;101681.78;;;0.91;100.00
50380;BME280;37474;59.468;18.040;2022-12-18T12:56:30;101714.16;;;1.03;100.00